Time;durP1;ratioP1;P1;durP2;ratioP2;P2;SDS_P1;SDS_P2;PMS_P1;PMS_P2;Temp;Humidity;BMP_temperature;BMP_pressure;BME280_temperature;BME280_humidity;BME280_pressure;Samples;Min_cycle;Max_cycle;Signal;HPM_P1;HPM_P2
2023/09/22 00:00:00;;;;;;;7.07;4.47;;;;;;;17.43;74.62;99299.91;5028499;28;20216;-72
2023/09/22 00:02:27;;;;;;;8.77;5.07;;;;;;;17.41;74.52;99302.22;5007089;28;20209;-72
2023/09/22 00:04:53;;;;;;;8.00;5.03;;;;;;;17.37;74.84;99293.47;5029575;28;20681;-72
2023/09/22 00:07:20;;;;;;;7.60;4.73;;;;;;;17.34;74.75;99304.97;5029071;28;20208;-72
2023/09/22 00:09:46;;;;;;;8.13;4.97;;;;;;;17.30;74.96;99302.34;5026628;28;20310;-72
2023/09/22 00:12:14;;;;;;;9.20;5.10;;;;;;;17.26;75.05;99290.19;5030919;28;20556;-72
2023/09/22 00:14:40;;;;;;;5.47;4.33;;;;;;;17.22;75.15;99297.47;5029827;28;20527;-72
2023/09/22 00:17:06;;;;;;;7.53;4.90;;;;;;;17.16;75.49;99291.84;5028722;28;20203;-72
2023/09/22 00:19:33;;;;;;;5.83;4.60;;;;;;;17.12;75.28;99290.38;5027620;28;20230;-72
2023/09/22 00:21:59;;;;;;;9.20;4.57;;;;;;;17.09;75.71;99283.16;5028930;28;20555;-72
2023/09/22 00:24:26;;;;;;;8.10;4.70;;;;;;;17.04;75.71;99287.03;5028081;28;20206;-72
2023/09/22 00:26:52;;;;;;;6.77;4.87;;;;;;;16.99;75.74;99287.47;5027261;28;20226;-72
2023/09/22 00:29:20;;;;;;;7.57;4.87;;;;;;;16.94;75.95;99284.47;5028669;28;20722;-72
2023/09/22 00:31:46;;;;;;;8.27;5.10;;;;;;;16.90;76.03;99284.53;5012486;28;20221;-72
2023/09/22 00:34:13;;;;;;;5.97;4.93;;;;;;;16.86;76.06;99286.47;5027988;28;20219;-72
2023/09/22 00:36:39;;;;;;;7.43;5.27;;;;;;;16.82;76.36;99296.41;5025244;28;20308;-72
2023/09/22 00:39:06;;;;;;;11.57;5.13;;;;;;;16.78;76.56;99278.94;5017360;28;20222;-72
2023/09/22 00:41:32;;;;;;;7.83;5.40;;;;;;;16.75;76.81;99285.81;5015838;28;20204;-72
2023/09/22 00:43:58;;;;;;;11.40;5.67;;;;;;;16.73;76.84;99293.47;5014543;28;20221;-72
2023/09/22 00:46:27;;;;;;;11.70;5.53;;;;;;;16.71;77.12;99284.34;5030749;28;20248;-72
2023/09/22 00:48:56;;;;;;;9.13;5.63;;;;;;;16.70;77.35;99296.16;5026652;28;20651;-72
2023/09/22 00:51:23;;;;;;;12.50;5.90;;;;;;;16.70;77.28;99296.16;5028488;28;20200;-72
2023/09/22 00:53:51;;;;;;;7.90;5.73;;;;;;;16.73;77.66;99288.13;5011259;28;20211;-72
2023/09/22 00:56:20;;;;;;;7.80;5.90;;;;;;;16.76;77.81;99294.59;5011679;28;20641;-72
2023/09/22 00:58:47;;;;;;;9.27;6.10;;;;;;;16.80;77.81;99295.28;5024884;28;20587;-72
2023/09/22 01:01:13;;;;;;;8.60;5.80;;;;;;;16.84;77.52;99304.00;5012940;28;20207;-72
2023/09/22 01:03:41;;;;;;;7.80;6.33;;;;;;;16.89;77.56;99315.00;5026583;28;20203;-72
2023/09/22 01:06:09;;;;;;;11.53;6.20;;;;;;;16.94;78.85;99346.56;5027498;28;20199;-72
2023/09/22 01:08:35;;;;;;;7.53;5.53;;;;;;;16.98;77.89;99363.28;5012286;28;20224;-72
2023/09/22 01:11:02;;;;;;;10.00;5.40;;;;;;;17.03;78.88;99362.84;5009419;28;20223;-73
2023/09/22 01:13:28;;;;;;;11.13;5.33;;;;;;;17.08;79.28;99362.41;5007228;28;20287;-73
2023/09/22 01:15:56;;;;;;;7.60;5.03;;;;;;;17.11;78.98;99358.97;5026648;28;20200;-73
2023/09/22 01:18:22;;;;;;;7.67;5.60;;;;;;;17.14;78.61;99358.19;5008370;28;20231;-73
2023/09/22 01:20:50;;;;;;;7.23;5.30;;;;;;;17.18;77.92;99360.81;5006683;28;20689;-73
2023/09/22 01:23:18;;;;;;;9.77;4.87;;;;;;;17.19;78.10;99354.31;5007293;28;20235;-73
2023/09/22 01:25:45;;;;;;;7.07;5.20;;;;;;;17.19;78.04;99360.38;5011235;28;20210;-73
2023/09/22 01:28:14;;;;;;;12.10;5.47;;;;;;;17.20;78.09;99364.59;5027010;28;20211;-73
2023/09/22 01:30:40;;;;;;;7.47;5.43;;;;;;;17.20;77.96;99353.16;5025810;28;20199;-73
2023/09/22 01:33:07;;;;;;;8.33;5.43;;;;;;;17.20;77.67;99355.81;5007325;28;20250;-73
2023/09/22 01:35:35;;;;;;;8.13;5.40;;;;;;;17.18;77.68;99356.19;5006740;28;20239;-73
2023/09/22 01:38:11;;;;;;;8.07;5.20;;;;;;;17.16;77.93;99355.09;5026609;28;20203;-73
2023/09/22 01:40:39;;;;;;;7.13;5.13;;;;;;;17.14;77.81;99344.06;5024047;28;20219;-73
2023/09/22 01:43:06;;;;;;;9.33;5.00;;;;;;;17.11;77.90;99345.63;5008680;28;20291;-73
2023/09/22 01:45:32;;;;;;;10.03;5.40;;;;;;;17.11;77.62;99350.19;5010472;28;20232;-73
2023/09/22 01:47:58;;;;;;;10.47;5.37;;;;;;;17.07;77.73;99349.50;5006128;28;20207;-73
2023/09/22 01:50:25;;;;;;;7.23;5.00;;;;;;;17.06;78.53;99347.94;5011044;28;20239;-73
2023/09/22 01:52:52;;;;;;;9.33;5.47;;;;;;;17.04;77.96;99347.59;5024974;28;20685;-73
2023/09/22 01:55:18;;;;;;;11.93;5.10;;;;;;;17.01;78.24;99346.50;5025531;28;20601;-73
2023/09/22 01:57:49;;;;;;;8.33;5.40;;;;;;;16.99;78.26;99356.81;5006831;28;20282;-73
2023/09/22 02:00:18;;;;;;;7.70;4.77;;;;;;;16.97;78.27;99369.03;5007270;28;20693;-73
2023/09/22 02:02:45;;;;;;;8.57;5.20;;;;;;;16.94;78.69;99377.81;5026788;28;22330;-73
2023/09/22 02:05:12;;;;;;;9.07;5.47;;;;;;;16.90;79.00;99391.19;5008057;28;20341;-73
2023/09/22 02:07:38;;;;;;;5.67;5.07;;;;;;;16.87;78.91;99386.63;5007570;28;20250;-73
2023/09/22 02:10:09;;;;;;;12.23;4.80;;;;;;;16.83;78.81;99385.94;5008206;28;20228;-73
2023/09/22 02:12:36;;;;;;;15.83;6.33;;;;;;;16.81;79.83;99388.22;5010710;28;20268;-73
2023/09/22 02:15:05;;;;;;;10.47;5.23;;;;;;;16.79;79.39;99395.84;5005864;28;20218;-73
2023/09/22 02:17:32;;;;;;;10.03;6.10;;;;;;;16.77;79.76;99405.41;5006231;28;20297;-73
2023/09/22 02:19:58;;;;;;;9.00;6.00;;;;;;;16.75;79.32;99405.03;5008378;28;20228;-73
2023/09/22 02:22:24;;;;;;;8.80;5.70;;;;;;;16.75;79.74;99419.13;5023488;28;20212;-73
2023/09/22 02:24:51;;;;;;;8.63;5.83;;;;;;;16.76;81.05;99412.63;5023279;28;20199;-73
2023/09/22 02:27:17;;;;;;;11.57;5.77;;;;;;;16.77;80.44;99418.72;5006015;28;20214;-73
2023/09/22 02:29:43;;;;;;;11.03;6.20;;;;;;;16.78;80.14;99414.91;5025429;28;20230;-73
2023/09/22 02:32:11;;;;;;;8.73;6.40;;;;;;;16.83;80.58;99417.16;5021922;28;20300;-73
2023/09/22 02:34:38;;;;;;;7.97;6.27;;;;;;;16.86;80.31;99417.13;5005080;28;20313;-73
2023/09/22 02:37:04;;;;;;;8.67;5.97;;;;;;;16.89;80.58;99423.56;5006958;28;20211;-72
2023/09/22 02:39:31;;;;;;;11.97;6.37;;;;;;;16.92;80.10;99418.19;5009215;28;20227;-72
2023/09/22 02:41:58;;;;;;;8.20;6.13;;;;;;;16.94;80.67;99415.91;5006953;28;20236;-72
2023/09/22 02:44:30;;;;;;;9.20;5.53;;;;;;;16.95;80.27;99420.09;5005649;28;20212;-72
2023/09/22 02:46:59;;;;;;;11.37;5.80;;;;;;;16.97;80.02;99425.03;5008693;28;20303;-72
2023/09/22 02:49:30;;;;;;;11.37;5.60;;;;;;;16.96;79.59;99429.59;5022788;28;20269;-72
2023/09/22 02:52:02;;;;;;;9.13;5.57;;;;;;;16.95;79.77;99424.66;5010669;28;20545;-72
2023/09/22 02:54:29;;;;;;;9.03;5.90;;;;;;;16.94;80.32;99423.91;5010242;28;20247;-73
2023/09/22 02:56:56;;;;;;;10.40;5.57;;;;;;;16.93;79.87;99427.72;5029848;28;21240;-72
2023/09/22 02:59:23;;;;;;;6.50;5.10;;;;;;;16.92;79.77;99423.53;5011761;28;20594;-72
2023/09/22 03:01:50;;;;;;;7.60;5.53;;;;;;;16.91;79.79;99432.69;5026661;28;20214;-73
2023/09/22 03:04:17;;;;;;;6.60;4.77;;;;;;;16.92;79.80;99441.47;5027286;28;20653;-73
2023/09/22 03:06:45;;;;;;;7.87;5.23;;;;;;;16.93;79.33;99445.63;5028510;28;20258;-73
2023/09/22 03:09:11;;;;;;;10.63;5.43;;;;;;;16.93;79.50;99453.63;5009618;28;20599;-73
2023/09/22 03:11:38;;;;;;;6.87;5.03;;;;;;;16.96;80.06;99455.50;5013012;28;20287;-73
2023/09/22 03:14:08;;;;;;;5.80;4.60;;;;;;;16.98;79.48;99456.63;5028966;28;20208;-72
2023/09/22 03:16:35;;;;;;;5.90;4.80;;;;;;;17.01;79.26;99452.41;5030158;28;20214;-72
2023/09/22 03:19:07;;;;;;;5.47;4.70;;;;;;;17.06;79.78;99463.41;5026420;28;20215;-72
2023/09/22 03:21:37;;;;;;;8.40;4.13;;;;;;;17.11;79.92;99462.22;5028977;28;20215;-72
2023/09/22 03:24:05;;;;;;;6.47;3.77;;;;;;;17.18;79.60;99468.25;5030001;28;20567;-72
2023/09/22 03:26:32;;;;;;;5.03;4.13;;;;;;;17.21;79.19;99464.81;5028456;28;20193;-73
2023/09/22 03:29:00;;;;;;;4.00;3.57;;;;;;;17.27;79.41;99467.78;5014183;28;20231;-72
2023/09/22 03:31:30;;;;;;;3.90;3.50;;;;;;;17.33;78.28;99471.56;5026480;28;20290;-72
2023/09/22 03:33:56;;;;;;;3.63;3.30;;;;;;;17.38;78.52;99476.47;5012728;28;20208;-72
2023/09/22 03:36:23;;;;;;;6.40;3.00;;;;;;;17.40;78.23;99476.84;5012333;28;20724;-72
2023/09/22 03:38:49;;;;;;;3.80;3.13;;;;;;;17.45;78.21;99489.75;5027578;28;20221;-72
2023/09/22 03:41:28;;;;;;;2.63;2.40;;;;;;;17.50;77.46;99500.00;5008550;28;20220;-72
2023/09/22 03:43:55;;;;;;;3.97;2.30;;;;;;;17.53;77.37;99491.19;5012582;28;20196;-72
2023/09/22 03:46:22;;;;;;;7.33;2.20;;;;;;;17.54;76.77;99490.06;5009220;28;20204;-72
2023/09/22 03:48:48;;;;;;;2.43;1.83;;;;;;;17.56;76.51;99495.75;5009631;28;20337;-72
2023/09/22 03:51:15;;;;;;;1.60;1.50;;;;;;;17.59;75.74;99503.69;5025226;28;21214;-72
2023/09/22 03:53:41;;;;;;;1.70;1.53;;;;;;;17.60;75.49;99504.47;5011396;28;20238;-72
2023/09/22 03:56:09;;;;;;;1.57;1.10;;;;;;;17.61;75.05;99519.34;5012083;28;20227;-72
2023/09/22 03:58:37;;;;;;;1.63;0.97;;;;;;;17.62;74.58;99520.84;5026944;28;20223;-72
2023/09/22 04:01:15;;;;;;;1.77;0.97;;;;;;;17.63;74.18;99527.69;5024147;28;20774;-72
2023/09/22 04:03:47;;;;;;;1.20;0.70;;;;;;;17.65;74.04;99522.72;5009549;28;20213;-72
2023/09/22 04:06:15;;;;;;;0.60;0.60;;;;;;;17.65;73.92;99520.06;5007893;28;20215;-73
2023/09/22 04:08:51;;;;;;;1.20;0.73;;;;;;;17.63;73.64;99520.44;5006027;28;20240;-73
2023/09/22 04:11:18;;;;;;;1.33;0.53;;;;;;;17.68;73.33;99511.25;5007806;28;20197;-72
2023/09/22 04:13:51;;;;;;;0.60;0.60;;;;;;;17.67;73.26;99507.06;5022834;28;20212;-72
2023/09/22 04:16:19;;;;;;;1.80;0.77;;;;;;;17.67;73.06;99523.84;5008663;28;20215;-72
2023/09/22 04:18:53;;;;;;;0.50;0.50;;;;;;;17.66;73.20;99527.69;5023481;28;20336;-72
2023/09/22 04:21:21;;;;;;;0.93;0.70;;;;;;;17.64;73.34;99526.56;5025366;28;20282;-72
2023/09/22 04:23:51;;;;;;;0.83;0.60;;;;;;;17.63;73.32;99535.69;5010342;28;20809;-72
2023/09/22 04:26:17;;;;;;;1.23;0.53;;;;;;;17.60;73.04;99531.91;5027362;28;20200;-72
2023/09/22 04:28:51;;;;;;;0.50;0.50;;;;;;;17.59;72.69;99537.66;5021529;28;20252;-72
2023/09/22 04:31:21;;;;;;;1.23;0.50;;;;;;;17.60;72.56;99545.25;5024155;28;20659;-72
2023/09/22 04:33:53;;;;;;;0.30;0.30;;;;;;;17.60;72.69;99555.94;5024119;28;20300;-72
2023/09/22 04:36:26;;;;;;;0.60;0.20;;;;;;;17.60;72.52;99547.19;5025253;28;20242;-72
2023/09/22 04:39:11;;;;;;;0.40;0.40;;;;;;;17.60;72.36;99547.94;5006566;28;20319;-73
2023/09/22 04:41:48;;;;;;;0.40;0.40;;;;;;;17.59;72.51;99541.06;5008935;28;20228;-73
2023/09/22 04:44:36;;;;;;;0.23;0.23;;;;;;;17.58;72.14;99528.88;5026823;28;20196;-73
2023/09/22 04:47:03;;;;;;;0.53;0.40;;;;;;;17.57;72.58;99537.28;5015625;28;20211;-73
2023/09/22 04:49:39;;;;;;;0.27;0.27;;;;;;;17.56;72.54;99539.22;5023865;28;20232;-73
2023/09/22 04:52:21;;;;;;;0.80;0.40;;;;;;;17.56;72.44;99549.91;5022610;28;20713;-73
2023/09/22 04:54:56;;;;;;;1.33;0.47;;;;;;;17.54;73.05;99551.44;5004089;28;20582;-73
2023/09/22 04:57:25;;;;;;;0.40;0.40;;;;;;;17.53;72.60;99552.56;5023676;28;20283;-73
2023/09/22 05:00:12;;;;;;;0.50;0.43;;;;;;;17.50;72.91;99554.13;5003045;28;20265;-73
2023/09/22 05:03:00;;;;;;;1.03;0.50;;;;;;;17.49;73.03;99565.97;5023069;28;20686;-73
2023/09/22 05:05:41;;;;;;;0.83;0.40;;;;;;;17.50;73.03;99564.06;5022906;28;20278;-73
2023/09/22 05:08:19;;;;;;;0.80;0.50;;;;;;;17.47;73.06;99581.63;5008669;28;20206;-73
2023/09/22 05:10:55;;;;;;;0.30;0.30;;;;;;;17.46;73.31;99595.34;5004736;28;20216;-73
2023/09/22 05:13:40;;;;;;;0.20;0.20;;;;;;;17.45;73.36;99593.84;5024018;28;20291;-73
2023/09/22 05:16:18;;;;;;;0.50;0.40;;;;;;;17.45;73.38;99612.53;5022685;28;20200;-73
2023/09/22 05:19:02;;;;;;;1.43;0.40;;;;;;;17.46;73.93;99590.78;5022744;28;20288;-73
2023/09/22 05:24:44;;;;;;;0.30;0.30;;;;;;;17.50;73.45;99591.50;5019386;28;20235;-73
2023/09/22 05:27:18;;;;;;;0.40;0.40;;;;;;;17.52;73.50;99597.22;5008607;28;20212;-73
2023/09/22 05:29:54;;;;;;;0.70;0.30;;;;;;;17.56;73.89;99608.63;5020935;28;20781;-72
2023/09/22 05:32:38;;;;;;;2.53;0.50;;;;;;;17.59;73.68;99613.16;5026005;28;20246;-72
2023/09/22 05:35:07;;;;;;;0.40;0.40;;;;;;;17.63;73.73;99605.88;5007269;28;20749;-72
2023/09/22 05:37:41;;;;;;;0.27;0.27;;;;;;;17.67;73.73;99611.19;5022044;28;20694;-73
2023/09/22 05:40:13;;;;;;;0.30;0.30;;;;;;;17.70;73.75;99616.50;5024999;28;20252;-72
2023/09/22 05:42:43;;;;;;;1.17;0.20;;;;;;;17.74;73.66;99611.88;5024458;28;20199;-73
2023/09/22 05:45:11;;;;;;;1.20;0.40;;;;;;;17.76;73.21;99622.16;5023307;28;20204;-74
2023/09/22 05:47:51;;;;;;;0.50;0.33;;;;;;;17.80;73.39;99626.31;5021743;28;20196;-73
2023/09/22 05:50:25;;;;;;;3.23;0.30;;;;;;;17.82;73.25;99637.38;5024681;28;20223;-73
2023/09/22 05:52:55;;;;;;;0.40;0.40;;;;;;;17.86;73.34;99656.03;5004018;28;20688;-73
2023/09/22 05:55:27;;;;;;;0.33;0.30;;;;;;;17.88;73.17;99648.38;5008727;28;20222;-73
2023/09/22 05:58:05;;;;;;;0.53;0.40;;;;;;;17.92;73.15;99643.75;5024307;28;20188;-73
2023/09/22 06:00:47;;;;;;;1.07;0.30;;;;;;;17.94;73.43;99657.47;5024400;28;20191;-73
2023/09/22 06:03:21;;;;;;;1.03;0.30;;;;;;;17.96;73.14;99658.59;5021645;28;20204;-73
2023/09/22 06:05:54;;;;;;;0.67;0.40;;;;;;;18.01;73.11;99663.50;5023682;28;20192;-73
2023/09/22 06:08:22;;;;;;;0.50;0.37;;;;;;;18.04;73.12;99659.28;5020296;28;20250;-73
2023/09/22 06:10:51;;;;;;;1.33;0.50;;;;;;;18.08;72.67;99676.81;5004920;28;20323;-73
2023/09/22 06:13:24;;;;;;;0.40;0.40;;;;;;;18.11;72.67;99677.94;5005770;28;20199;-73
2023/09/22 06:15:51;;;;;;;0.83;0.30;;;;;;;18.16;72.27;99672.91;5005632;28;20223;-73
2023/09/22 06:18:31;;;;;;;0.43;0.13;;;;;;;18.22;72.15;99682.00;5019892;28;20266;-73
2023/09/22 06:21:00;;;;;;;1.47;0.37;;;;;;;18.30;72.48;99688.03;5022687;28;20195;-73
2023/09/22 06:23:36;;;;;;;0.40;0.30;;;;;;;18.36;72.34;99681.16;5021597;28;20208;-73
2023/09/22 06:26:04;;;;;;;0.80;0.40;;;;;;;18.42;72.36;99672.25;5002192;28;20200;-73
2023/09/22 06:28:32;;;;;;;0.70;0.30;;;;;;;18.51;72.24;99674.47;5005552;28;20596;-73
2023/09/22 06:31:00;;;;;;;0.87;0.43;;;;;;;18.56;71.72;99674.78;5022274;28;20294;-73
2023/09/22 06:33:41;;;;;;;0.30;0.27;;;;;;;18.62;71.55;99683.88;5018493;28;20207;-73
2023/09/22 06:36:11;;;;;;;1.20;0.50;;;;;;;18.66;71.31;99687.28;5019435;28;20240;-73
2023/09/22 06:38:38;;;;;;;0.70;0.30;;;;;;;18.68;71.12;99695.66;5019348;28;20234;-73
2023/09/22 06:41:06;;;;;;;0.77;0.47;;;;;;;18.71;71.25;99699.44;5003008;28;20226;-73
2023/09/22 06:43:41;;;;;;;1.30;0.37;;;;;;;18.74;71.52;99702.06;5002878;28;20196;-73
2023/09/22 06:46:14;;;;;;;1.07;0.30;;;;;;;18.77;70.73;99697.84;5023397;28;20192;-73
2023/09/22 06:48:50;;;;;;;1.37;0.50;;;;;;;18.79;70.59;99703.56;5022076;28;20290;-73
2023/09/22 06:51:20;;;;;;;0.47;0.40;;;;;;;18.83;71.00;99705.00;5019453;28;20206;-73
2023/09/22 06:53:57;;;;;;;0.20;0.20;;;;;;;18.85;70.75;99718.00;5019798;28;20211;-73
2023/09/22 06:56:26;;;;;;;0.60;0.60;;;;;;;18.85;70.06;99707.28;5022105;28;20315;-73
2023/09/22 06:58:56;;;;;;;1.03;0.43;;;;;;;18.86;70.11;99716.84;5020038;28;20251;-73
2023/09/22 07:01:23;;;;;;;1.13;0.40;;;;;;;18.85;70.08;99718.75;5022233;28;20196;-73
2023/09/22 07:03:51;;;;;;;0.77;0.33;;;;;;;18.81;70.34;99725.31;5001841;28;20215;-73
2023/09/22 07:06:20;;;;;;;1.00;0.40;;;;;;;18.81;70.64;99733.31;5002628;28;20193;-73
2023/09/22 07:08:50;;;;;;;2.70;1.27;;;;;;;18.81;71.01;99739.44;5019655;28;20220;-73
2023/09/22 07:11:25;;;;;;;1.80;0.47;;;;;;;18.80;70.95;99723.78;5002561;28;20207;-73
2023/09/22 07:13:57;;;;;;;1.00;0.50;;;;;;;18.79;70.85;99719.59;5007265;28;20200;-73
2023/09/22 07:16:28;;;;;;;0.67;0.40;;;;;;;18.77;71.05;99714.66;5021178;28;20212;-73
2023/09/22 07:18:56;;;;;;;0.50;0.47;;;;;;;18.75;71.05;99718.88;5020876;28;20223;-73
2023/09/22 07:21:28;;;;;;;1.97;0.63;;;;;;;18.75;70.82;99724.22;5024630;28;20611;-73
2023/09/22 07:23:55;;;;;;;0.67;0.40;;;;;;;18.73;71.30;99745.28;5004975;28;20269;-73
2023/09/22 07:26:26;;;;;;;0.40;0.40;;;;;;;18.71;71.39;99739.56;5004364;28;20227;-73
2023/09/22 07:28:53;;;;;;;1.23;0.47;;;;;;;18.73;71.43;99751.38;5001969;28;20209;-73
2023/09/22 07:31:30;;;;;;;0.90;0.53;;;;;;;18.74;71.39;99763.56;4986863;28;20208;-73
2023/09/22 07:33:59;;;;;;;0.30;0.30;;;;;;;18.78;71.88;99763.56;5002275;28;20204;-73
2023/09/22 07:36:29;;;;;;;0.40;0.40;;;;;;;18.81;71.97;99766.19;4983574;28;20216;-73
2023/09/22 07:38:56;;;;;;;0.50;0.33;;;;;;;18.85;72.21;99777.63;4987679;28;20217;-73
2023/09/22 07:41:27;;;;;;;1.10;0.50;;;;;;;18.88;72.02;99782.16;4986534;28;20201;-73
2023/09/22 07:43:55;;;;;;;2.37;0.50;;;;;;;18.91;71.84;99784.03;5005303;28;20715;-73
2023/09/22 07:46:26;;;;;;;0.60;0.60;;;;;;;18.93;71.86;99784.38;4988803;28;20212;-73
2023/09/22 07:48:58;;;;;;;0.60;0.50;;;;;;;18.97;71.74;99790.47;4987166;28;20224;-73
2023/09/22 07:51:40;;;;;;;0.60;0.40;;;;;;;18.98;72.02;99800.00;5002695;28;20211;-73
2023/09/22 07:54:11;;;;;;;0.80;0.50;;;;;;;19.01;71.68;99811.81;5005033;28;20199;-73
2023/09/22 07:56:40;;;;;;;1.33;0.60;;;;;;;19.01;71.38;99815.28;5002532;28;20738;-73
2023/09/22 07:59:11;;;;;;;4.27;0.60;;;;;;;19.03;71.32;99814.84;5005521;28;20235;-73
2023/09/22 08:01:42;;;;;;;0.90;0.60;;;;;;;19.03;70.93;99820.97;4994418;28;20223;-73
2023/09/22 08:04:11;;;;;;;0.73;0.57;;;;;;;19.02;70.98;99829.38;4985432;28;20205;-73
2023/09/22 08:06:47;;;;;;;7.27;0.77;;;;;;;19.01;71.22;99823.31;4986024;28;20224;-73
2023/09/22 08:09:19;;;;;;;2.07;0.50;;;;;;;19.00;71.21;99840.50;4991076;28;20235;-73
2023/09/22 08:11:47;;;;;;;1.83;0.60;;;;;;;18.98;71.47;99839.38;4985854;28;20662;-73
2023/09/22 08:14:13;;;;;;;1.07;0.50;;;;;;;18.89;70.76;99841.78;4987494;28;20220;-73
2023/09/22 08:16:43;;;;;;;0.80;0.70;;;;;;;18.89;70.52;99841.78;5004292;28;20299;-73
2023/09/22 08:19:11;;;;;;;0.60;0.60;;;;;;;18.86;71.06;99842.56;5005228;28;20303;-73
2023/09/22 08:21:45;;;;;;;0.77;0.50;;;;;;;18.83;71.25;99844.13;4985241;28;20212;-73
2023/09/22 08:24:15;;;;;;;0.57;0.40;;;;;;;18.82;71.12;99850.63;4988981;28;20211;-73
2023/09/22 08:26:43;;;;;;;0.60;0.60;;;;;;;18.81;71.47;99853.69;4984824;28;20235;-73
2023/09/22 08:29:13;;;;;;;0.40;0.40;;;;;;;18.77;71.65;99858.31;5003469;28;20570;-73
2023/09/22 08:31:43;;;;;;;0.57;0.40;;;;;;;18.71;71.76;99867.94;4985441;28;20196;-73
2023/09/22 08:34:11;;;;;;;1.03;0.60;;;;;;;18.67;71.52;99859.19;4987097;28;20741;-73
2023/09/22 08:36:40;;;;;;;0.90;0.57;;;;;;;18.63;71.48;99858.47;4994102;28;20229;-73
2023/09/22 08:39:16;;;;;;;1.30;0.60;;;;;;;18.64;71.81;99858.09;5006804;28;20314;-73
2023/09/22 08:41:50;;;;;;;3.80;0.90;;;;;;;18.65;71.95;99867.63;5005893;28;20201;-73
2023/09/22 08:44:25;;;;;;;0.97;0.70;;;;;;;18.65;72.03;99872.19;4987262;28;20201;-73
2023/09/22 08:46:53;;;;;;;0.90;0.70;;;;;;;18.65;71.88;99872.19;5004731;28;20186;-73
2023/09/22 08:49:26;;;;;;;1.10;0.70;;;;;;;18.65;72.20;99869.53;5002090;28;20247;-73
2023/09/22 08:51:54;;;;;;;3.43;0.70;;;;;;;18.67;71.99;99872.56;5006067;28;20284;-73
2023/09/22 08:54:22;;;;;;;5.40;0.70;;;;;;;18.69;71.73;99865.66;5003550;28;20683;-73
2023/09/22 08:56:50;;;;;;;1.33;0.70;;;;;;;18.71;71.41;99866.03;5002390;28;20717;-73
2023/09/22 08:59:19;;;;;;;3.53;0.90;;;;;;;18.74;71.50;99881.25;5003281;28;20227;-73
2023/09/22 09:01:51;;;;;;;0.83;0.70;;;;;;;18.80;71.63;99881.59;4987489;28;20192;-72
2023/09/22 09:04:34;;;;;;;1.90;0.70;;;;;;;18.83;72.25;99886.91;5001653;28;20197;-73
2023/09/22 09:07:12;;;;;;;3.27;0.70;;;;;;;18.88;71.95;99891.84;4985825;28;20391;-73
2023/09/22 09:09:55;;;;;;;0.57;0.57;;;;;;;18.93;72.67;99894.09;5005088;28;20279;-73
2023/09/22 09:12:33;;;;;;;0.47;0.47;;;;;;;18.98;72.40;99887.53;5000143;28;20205;-73
2023/09/22 09:15:00;;;;;;;0.83;0.50;;;;;;;19.03;72.15;99889.78;4984606;28;20703;-73
2023/09/22 09:17:32;;;;;;;0.73;0.50;;;;;;;19.03;71.63;99889.78;5001957;28;20843;-73
2023/09/22 09:20:05;;;;;;;2.67;0.60;;;;;;;19.02;71.76;99889.03;4988418;28;20284;-73
2023/09/22 09:22:35;;;;;;;2.00;1.20;;;;;;;19.10;72.07;99897.75;4986592;28;20622;-73
2023/09/22 09:25:09;;;;;;;1.47;0.73;;;;;;;19.10;71.82;99903.84;4984214;28;20746;-73
2023/09/22 09:27:39;;;;;;;1.67;0.70;;;;;;;19.13;71.32;99892.34;4987113;28;20274;-73
2023/09/22 09:30:11;;;;;;;1.40;0.70;;;;;;;19.19;71.26;99893.44;4985947;28;20224;-73
2023/09/22 09:32:42;;;;;;;1.43;0.80;;;;;;;19.20;71.28;99900.31;4983174;28;20209;-73
2023/09/22 09:35:27;;;;;;;0.80;0.60;;;;;;;19.27;70.91;99889.56;5000788;28;20223;-74
2023/09/22 09:38:02;;;;;;;0.80;0.70;;;;;;;19.32;69.47;99894.47;4997972;28;20298;-73
2023/09/22 09:40:30;;;;;;;1.03;0.73;;;;;;;19.42;69.86;99893.59;5000063;28;20234;-73
2023/09/22 09:43:00;;;;;;;1.10;0.80;;;;;;;19.51;69.33;99890.44;4984699;28;20213;-73
2023/09/22 09:45:34;;;;;;;0.60;0.60;;;;;;;19.61;69.72;99898.31;5000201;28;20221;-73
2023/09/22 09:48:09;;;;;;;2.30;0.73;;;;;;;19.72;69.85;99900.88;4983075;28;20283;-74
2023/09/22 09:50:38;;;;;;;1.53;0.73;;;;;;;19.85;69.46;99897.25;4977584;28;20212;-74
2023/09/22 09:53:09;;;;;;;1.50;0.83;;;;;;;19.99;68.73;99893.63;4979450;28;20205;-73
2023/09/22 09:55:42;;;;;;;0.70;0.60;;;;;;;20.11;68.88;99893.06;4997268;28;20201;-73
2023/09/22 09:58:12;;;;;;;1.70;0.70;;;;;;;20.21;66.91;99887.56;4997776;28;20673;-73
2023/09/22 10:00:42;;;;;;;1.90;0.50;;;;;;;20.29;66.43;99890.91;4998863;28;20859;-73
2023/09/22 10:03:12;;;;;;;0.97;0.60;;;;;;;20.33;65.87;99891.63;4997428;28;20236;-73
2023/09/22 10:05:44;;;;;;;0.80;0.73;;;;;;;20.34;65.58;99893.88;4980255;28;20205;-73
2023/09/22 10:08:18;;;;;;;1.23;0.60;;;;;;;20.38;65.57;99894.56;4997290;28;20302;-73
2023/09/22 10:10:51;;;;;;;0.60;0.53;;;;;;;20.34;64.84;99896.56;4979769;28;20196;-73
2023/09/22 10:13:24;;;;;;;0.70;0.50;;;;;;;20.34;65.21;99890.44;4998901;28;20222;-73
2023/09/22 10:15:53;;;;;;;0.67;0.60;;;;;;;20.36;66.15;99888.88;4997487;28;20691;-73
2023/09/22 10:18:23;;;;;;;0.60;0.60;;;;;;;20.36;66.70;99893.47;4978696;28;20210;-73
2023/09/22 10:20:51;;;;;;;1.10;0.77;;;;;;;20.32;66.64;99890.84;4979486;28;20296;-73
2023/09/22 10:23:24;;;;;;;1.57;1.20;;;;;;;20.32;66.47;99892.75;4996250;28;20204;-73
2023/09/22 10:26:17;;;;;;;0.83;0.60;;;;;;;20.33;66.67;99897.72;4996354;28;20204;-74
2023/09/22 10:28:45;;;;;;;0.90;0.63;;;;;;;20.28;64.75;99892.06;4992554;28;20329;-74
2023/09/22 10:31:17;;;;;;;0.80;0.70;;;;;;;20.30;66.38;99895.09;4976117;28;20376;-74
2023/09/22 10:33:46;;;;;;;0.60;0.60;;;;;;;20.31;66.29;99901.97;4993374;28;20205;-74
2023/09/22 10:36:47;;;;;;;0.60;0.50;;;;;;;20.31;66.17;99902.75;4974280;28;20205;-74
2023/09/22 10:39:51;;;;;;;1.20;0.70;;;;;;;20.31;67.01;99901.97;4994350;28;20243;-73
2023/09/22 10:42:28;;;;;;;1.83;0.80;;;;;;;20.33;67.43;99902.34;4981483;28;20212;-73
2023/09/22 10:45:03;;;;;;;0.80;0.63;;;;;;;20.29;66.75;99897.00;4981668;28;20610;-73
2023/09/22 10:47:46;;;;;;;0.80;0.70;;;;;;;20.31;68.30;99899.28;4981823;28;20295;-73
2023/09/22 10:50:18;;;;;;;0.90;0.73;;;;;;;20.33;67.87;99905.03;4982188;28;20239;-73
2023/09/22 10:52:54;;;;;;;1.30;0.80;;;;;;;20.32;68.42;99917.66;4983235;28;20686;-73
2023/09/22 10:55:31;;;;;;;0.80;0.80;;;;;;;20.34;68.38;99912.63;4999413;28;20635;-73
2023/09/22 10:58:05;;;;;;;0.90;0.70;;;;;;;20.32;67.16;99903.47;4979128;28;20228;-73
2023/09/22 11:00:35;;;;;;;0.60;0.60;;;;;;;20.37;67.42;99909.16;5000348;28;20215;-73
2023/09/22 11:03:08;;;;;;;1.10;0.67;;;;;;;20.41;67.50;99901.06;4980765;28;20667;-73
2023/09/22 11:05:35;;;;;;;0.67;0.53;;;;;;;20.40;66.89;99896.84;4998763;28;20224;-73
2023/09/22 11:08:13;;;;;;;1.20;0.73;;;;;;;20.45;67.10;99904.44;4980272;28;20227;-73
2023/09/22 11:10:48;;;;;;;0.90;0.80;;;;;;;20.45;66.59;99912.50;4998541;28;20682;-73
2023/09/22 11:13:18;;;;;;;0.77;0.57;;;;;;;20.49;66.81;99913.94;4987363;28;20274;-73
2023/09/22 11:15:53;;;;;;;1.53;0.83;;;;;;;20.53;66.66;99908.50;4998995;28;20630;-73
2023/09/22 11:18:24;;;;;;;0.80;0.80;;;;;;;20.53;66.28;99909.28;4983608;28;20231;-73
2023/09/22 11:21:08;;;;;;;1.00;0.80;;;;;;;20.55;66.11;99919.63;4982292;28;20566;-73
2023/09/22 11:23:36;;;;;;;1.23;0.70;;;;;;;20.57;64.84;99914.59;4980816;28;20213;-73
2023/09/22 11:26:07;;;;;;;1.93;0.80;;;;;;;20.54;64.56;99918.09;4981660;28;20204;-73
2023/09/22 11:28:37;;;;;;;1.10;0.73;;;;;;;20.42;64.28;99922.09;4980466;28;20221;-73
2023/09/22 11:31:10;;;;;;;1.23;0.70;;;;;;;20.41;65.13;99920.59;5000433;28;20201;-73
2023/09/22 11:33:39;;;;;;;1.50;0.90;;;;;;;20.39;64.94;99920.22;4979931;28;20215;-73
2023/09/22 11:36:08;;;;;;;0.70;0.70;;;;;;;20.36;64.93;99922.97;4983101;28;20199;-73
2023/09/22 11:38:39;;;;;;;1.27;0.60;;;;;;;20.31;64.86;99921.50;5000164;28;20224;-73
2023/09/22 11:41:10;;;;;;;1.20;0.73;;;;;;;20.23;65.58;99920.09;4999506;28;20197;-73
2023/09/22 11:43:54;;;;;;;1.27;0.70;;;;;;;20.24;66.83;99918.91;5001518;28;20288;-73
2023/09/22 11:46:28;;;;;;;1.13;0.90;;;;;;;20.18;67.48;99912.50;5002796;28;20279;-73
2023/09/22 11:49:02;;;;;;;1.80;0.93;;;;;;;20.14;68.33;99919.09;5001604;28;20235;-73
2023/09/22 11:51:48;;;;;;;1.73;1.00;;;;;;;20.12;69.55;99921.44;5002186;28;20679;-73